Aviation Digital Data Service (ADDS)

Output produced by METARs form (2207 UTC 18 October 2017)
found at http://www.aviationweather.gov/adds/metars/
 
LYPG 182200Z 34002KT CAVOK 14/10 Q1019 NOSIG
TAF LYPG 181700Z 1818/1918 36005KT CAVOK TX25/1913Z TN11/1904Z
       
LYTV 182200Z VRB02KT CAVOK 11/10 Q1018
TAF LYTV 181700Z 1818/1918 VRB02KT CAVOK TX25/1913Z TN08/1903Z